sensor_id;sensor_type;location;lat;lon;timestamp;pressure;altitude;pressure_sealevel;temperature;humidity
16738;BME280;17906;47.684;10.806;2022-09-29T00:01:42;91837.97;;;4.24;100.00
16738;BME280;17906;47.684;10.806;2022-09-29T00:04:10;91844.22;;;4.29;100.00
16738;BME280;17906;47.684;10.806;2022-09-29T00:06:36;91844.22;;;4.29;100.00
16738;BME280;17906;47.684;10.806;2022-09-29T00:09:04;91842.34;;;4.30;100.00
16738;BME280;17906;47.684;10.806;2022-09-29T00:11:31;91835.75;;;4.21;100.00
16738;BME280;17906;47.684;10.806;2022-09-29T00:13:58;91828.69;;;4.31;100.00
16738;BME280;17906;47.684;10.806;2022-09-29T00:16:24;91825.88;;;4.21;100.00
16738;BME280;17906;47.684;10.806;2022-09-29T00:18:52;91811.50;;;4.11;100.00
16738;BME280;17906;47.684;10.806;2022-09-29T00:21:19;91807.34;;;4.03;100.00
16738;BME280;17906;47.684;10.806;2022-09-29T00:23:46;91818.22;;;3.96;100.00
16738;BME280;17906;47.684;10.806;2022-09-29T00:26:16;91808.47;;;3.90;100.00
16738;BME280;17906;47.684;10.806;2022-09-29T00:28:46;91812.94;;;3.85;100.00
16738;BME280;17906;47.684;10.806;2022-09-29T00:31:14;91828.31;;;3.89;100.00
16738;BME280;17906;47.684;10.806;2022-09-29T00:33:41;91834.69;;;3.88;100.00
16738;BME280;17906;47.684;10.806;2022-09-29T00:36:10;91837.97;;;3.90;100.00
16738;BME280;17906;47.684;10.806;2022-09-29T00:38:38;91835.66;;;3.99;100.00
16738;BME280;17906;47.684;10.806;2022-09-29T00:41:05;91836.47;;;3.99;100.00
16738;BME280;17906;47.684;10.806;2022-09-29T00:43:55;91833.59;;;4.01;100.00
16738;BME280;17906;47.684;10.806;2022-09-29T00:46:31;91836.16;;;3.96;100.00
16738;BME280;17906;47.684;10.806;2022-09-29T00:49:05;91840.06;;;4.05;100.00
16738;BME280;17906;47.684;10.806;2022-09-29T00:51:33;91825.28;;;4.02;100.00
16738;BME280;17906;47.684;10.806;2022-09-29T00:54:03;91831.53;;;4.08;100.00
16738;BME280;17906;47.684;10.806;2022-09-29T00:56:31;91828.84;;;4.08;100.00
16738;BME280;17906;47.684;10.806;2022-09-29T00:59:03;91830.16;;;4.05;100.00
16738;BME280;17906;47.684;10.806;2022-09-29T01:01:32;91822.38;;;4.04;100.00
16738;BME280;17906;47.684;10.806;2022-09-29T01:04:02;91818.47;;;3.95;100.00
16738;BME280;17906;47.684;10.806;2022-09-29T01:06:33;91827.56;;;3.94;100.00
16738;BME280;17906;47.684;10.806;2022-09-29T01:09:02;91809.84;;;3.93;100.00
16738;BME280;17906;47.684;10.806;2022-09-29T01:11:29;91816.53;;;3.90;100.00
16738;BME280;17906;47.684;10.806;2022-09-29T01:13:57;91817.97;;;3.98;100.00
16738;BME280;17906;47.684;10.806;2022-09-29T01:16:29;91811.97;;;3.91;100.00
16738;BME280;17906;47.684;10.806;2022-09-29T01:18:57;91811.47;;;3.94;100.00
16738;BME280;17906;47.684;10.806;2022-09-29T01:21:33;91811.47;;;3.94;100.00
16738;BME280;17906;47.684;10.806;2022-09-29T01:27:18;91814.88;;;4.06;100.00
16738;BME280;17906;47.684;10.806;2022-09-29T01:30:13;91820.34;;;4.11;100.00
16738;BME280;17906;47.684;10.806;2022-09-29T01:32:59;91813.66;;;4.14;100.00
16738;BME280;17906;47.684;10.806;2022-09-29T01:35:39;91807.50;;;4.13;100.00
16738;BME280;17906;47.684;10.806;2022-09-29T01:38:20;91817.47;;;4.18;100.00
16738;BME280;17906;47.684;10.806;2022-09-29T01:40:57;91818.22;;;4.13;100.00
16738;BME280;17906;47.684;10.806;2022-09-29T01:43:32;91816.25;;;4.08;100.00
16738;BME280;17906;47.684;10.806;2022-09-29T01:46:02;91818.06;;;4.03;100.00
16738;BME280;17906;47.684;10.806;2022-09-29T01:48:35;91817.81;;;4.04;100.00
16738;BME280;17906;47.684;10.806;2022-09-29T01:51:07;91809.03;;;4.09;100.00
16738;BME280;17906;47.684;10.806;2022-09-29T01:53:37;91808.06;;;4.15;100.00
16738;BME280;17906;47.684;10.806;2022-09-29T01:56:08;91813.56;;;4.08;100.00
16738;BME280;17906;47.684;10.806;2022-09-29T01:58:40;91819.13;;;4.02;100.00
16738;BME280;17906;47.684;10.806;2022-09-29T02:01:10;91813.34;;;3.93;100.00
16738;BME280;17906;47.684;10.806;2022-09-29T02:03:43;91823.91;;;4.00;100.00
16738;BME280;17906;47.684;10.806;2022-09-29T02:06:15;91817.06;;;4.09;100.00
16738;BME280;17906;47.684;10.806;2022-09-29T02:08:48;91821.88;;;4.07;100.00
16738;BME280;17906;47.684;10.806;2022-09-29T02:11:18;91815.69;;;4.06;100.00
16738;BME280;17906;47.684;10.806;2022-09-29T02:13:49;91815.44;;;4.08;100.00
16738;BME280;17906;47.684;10.806;2022-09-29T02:16:18;91807.97;;;4.10;100.00
16738;BME280;17906;47.684;10.806;2022-09-29T02:18:52;91799.28;;;4.03;100.00
16738;BME280;17906;47.684;10.806;2022-09-29T02:21:20;91801.06;;;3.97;100.00
16738;BME280;17906;47.684;10.806;2022-09-29T02:23:47;91809.09;;;3.97;100.00
16738;BME280;17906;47.684;10.806;2022-09-29T02:26:14;91806.59;;;4.07;100.00
16738;BME280;17906;47.684;10.806;2022-09-29T02:28:43;91793.59;;;3.99;100.00
16738;BME280;17906;47.684;10.806;2022-09-29T02:31:10;91794.66;;;3.98;100.00
16738;BME280;17906;47.684;10.806;2022-09-29T02:33:37;91804.50;;;3.93;100.00
16738;BME280;17906;47.684;10.806;2022-09-29T02:36:15;91799.53;;;4.01;100.00
16738;BME280;17906;47.684;10.806;2022-09-29T02:38:46;91804.19;;;3.89;100.00
16738;BME280;17906;47.684;10.806;2022-09-29T02:41:27;91802.28;;;4.06;100.00
16738;BME280;17906;47.684;10.806;2022-09-29T02:44:08;91798.47;;;4.02;100.00
16738;BME280;17906;47.684;10.806;2022-09-29T02:46:50;91802.69;;;3.98;100.00
16738;BME280;17906;47.684;10.806;2022-09-29T02:49:32;91797.56;;;3.97;100.00
16738;BME280;17906;47.684;10.806;2022-09-29T02:52:15;91790.28;;;3.92;100.00
16738;BME280;17906;47.684;10.806;2022-09-29T02:54:52;91789.72;;;3.90;100.00
16738;BME280;17906;47.684;10.806;2022-09-29T02:57:27;91781.91;;;3.89;100.00
16738;BME280;17906;47.684;10.806;2022-09-29T03:00:01;91788.31;;;3.88;100.00
16738;BME280;17906;47.684;10.806;2022-09-29T03:02:33;91783.84;;;3.93;100.00
16738;BME280;17906;47.684;10.806;2022-09-29T03:05:00;91777.03;;;3.86;100.00
16738;BME280;17906;47.684;10.806;2022-09-29T03:07:29;91774.44;;;3.91;100.00
16738;BME280;17906;47.684;10.806;2022-09-29T03:09:55;91779.72;;;4.02;100.00
16738;BME280;17906;47.684;10.806;2022-09-29T03:12:22;91781.91;;;4.05;100.00
16738;BME280;17906;47.684;10.806;2022-09-29T03:14:48;91778.56;;;4.15;100.00
16738;BME280;17906;47.684;10.806;2022-09-29T03:17:15;91782.06;;;4.16;100.00
16738;BME280;17906;47.684;10.806;2022-09-29T03:19:42;91780.94;;;4.12;100.00
16738;BME280;17906;47.684;10.806;2022-09-29T03:22:08;91777.59;;;4.04;100.00
16738;BME280;17906;47.684;10.806;2022-09-29T03:24:36;91772.63;;;4.13;100.00
16738;BME280;17906;47.684;10.806;2022-09-29T03:27:03;91773.03;;;4.05;100.00
16738;BME280;17906;47.684;10.806;2022-09-29T03:29:30;91775.47;;;4.06;100.00
16738;BME280;17906;47.684;10.806;2022-09-29T03:31:57;91780.13;;;4.11;100.00
16738;BME280;17906;47.684;10.806;2022-09-29T03:34:24;91783.78;;;4.05;100.00
16738;BME280;17906;47.684;10.806;2022-09-29T03:36:51;91774.16;;;4.09;100.00
16738;BME280;17906;47.684;10.806;2022-09-29T03:39:17;91772.63;;;4.13;100.00
16738;BME280;17906;47.684;10.806;2022-09-29T03:41:46;91770.22;;;4.12;100.00
16738;BME280;17906;47.684;10.806;2022-09-29T03:44:13;91773.19;;;4.15;100.00
16738;BME280;17906;47.684;10.806;2022-09-29T03:46:39;91770.25;;;4.17;100.00
16738;BME280;17906;47.684;10.806;2022-09-29T03:49:08;91773.03;;;4.22;100.00
16738;BME280;17906;47.684;10.806;2022-09-29T03:51:35;91776.03;;;4.08;100.00
16738;BME280;17906;47.684;10.806;2022-09-29T03:54:02;91778.66;;;4.03;100.00
16738;BME280;17906;47.684;10.806;2022-09-29T03:56:29;91784.66;;;4.11;100.00
16738;BME280;17906;47.684;10.806;2022-09-29T03:58:57;91780.28;;;4.04;100.00
16738;BME280;17906;47.684;10.806;2022-09-29T04:01:23;91778.34;;;4.00;100.00
16738;BME280;17906;47.684;10.806;2022-09-29T04:03:50;91777.84;;;4.03;100.00
16738;BME280;17906;47.684;10.806;2022-09-29T04:06:17;91785.31;;;4.01;100.00
16738;BME280;17906;47.684;10.806;2022-09-29T04:08:43;91787.19;;;4.00;100.00
16738;BME280;17906;47.684;10.806;2022-09-29T04:11:10;91793.03;;;4.14;100.00
16738;BME280;17906;47.684;10.806;2022-09-29T04:13:36;91786.28;;;4.12;100.00
16738;BME280;17906;47.684;10.806;2022-09-29T04:16:05;91795.97;;;4.13;100.00
16738;BME280;17906;47.684;10.806;2022-09-29T04:18:32;91783.38;;;4.13;100.00
16738;BME280;17906;47.684;10.806;2022-09-29T04:21:04;91787.09;;;4.12;100.00
16738;BME280;17906;47.684;10.806;2022-09-29T04:23:31;91786.84;;;4.14;100.00
16738;BME280;17906;47.684;10.806;2022-09-29T04:25:58;91774.25;;;4.14;100.00
16738;BME280;17906;47.684;10.806;2022-09-29T04:28:25;91769.47;;;3.99;100.00
16738;BME280;17906;47.684;10.806;2022-09-29T04:30:52;91764.03;;;3.94;100.00
16738;BME280;17906;47.684;10.806;2022-09-29T04:33:20;91764.69;;;4.01;100.00
16738;BME280;17906;47.684;10.806;2022-09-29T04:35:47;91769.00;;;4.02;100.00
16738;BME280;17906;47.684;10.806;2022-09-29T04:38:13;91773.03;;;4.05;100.00
16738;BME280;17906;47.684;10.806;2022-09-29T04:40:40;91761.25;;;4.06;100.00
16738;BME280;17906;47.684;10.806;2022-09-29T04:43:07;91759.72;;;3.93;100.00
16738;BME280;17906;47.684;10.806;2022-09-29T04:45:34;91762.72;;;3.97;100.00
16738;BME280;17906;47.684;10.806;2022-09-29T04:48:00;91763.06;;;4.00;100.00
16738;BME280;17906;47.684;10.806;2022-09-29T04:50:28;91764.34;;;3.98;100.00
16738;BME280;17906;47.684;10.806;2022-09-29T04:52:55;91764.53;;;3.91;100.00
16738;BME280;17906;47.684;10.806;2022-09-29T04:55:22;91767.78;;;3.93;100.00
16738;BME280;17906;47.684;10.806;2022-09-29T04:57:48;91760.69;;;4.04;100.00
16738;BME280;17906;47.684;10.806;2022-09-29T05:00:15;91760.03;;;3.97;100.00
16738;BME280;17906;47.684;10.806;2022-09-29T05:02:42;91754.22;;;3.83;100.00
16738;BME280;17906;47.684;10.806;2022-09-29T05:05:09;91747.06;;;3.72;100.00
16738;BME280;17906;47.684;10.806;2022-09-29T05:07:38;91752.03;;;3.80;100.00
16738;BME280;17906;47.684;10.806;2022-09-29T05:10:08;91753.47;;;3.71;100.00
16738;BME280;17906;47.684;10.806;2022-09-29T05:12:35;91756.81;;;3.78;100.00
16738;BME280;17906;47.684;10.806;2022-09-29T05:15:02;91758.44;;;3.79;100.00
16738;BME280;17906;47.684;10.806;2022-09-29T05:17:30;91760.31;;;3.78;100.00
16738;BME280;17906;47.684;10.806;2022-09-29T05:19:57;91749.66;;;3.67;100.00
16738;BME280;17906;47.684;10.806;2022-09-29T05:22:23;91751.50;;;3.66;100.00
16738;BME280;17906;47.684;10.806;2022-09-29T05:24:52;91751.50;;;3.66;100.00
16738;BME280;17906;47.684;10.806;2022-09-29T05:27:19;91760.31;;;3.78;100.00
16738;BME280;17906;47.684;10.806;2022-09-29T05:29:47;91750.31;;;3.74;100.00
16738;BME280;17906;47.684;10.806;2022-09-29T05:32:14;91751.47;;;3.78;100.00
16738;BME280;17906;47.684;10.806;2022-09-29T05:34:41;91748.03;;;3.83;100.00
16738;BME280;17906;47.684;10.806;2022-09-29T05:37:07;91752.59;;;3.82;100.00
16738;BME280;17906;47.684;10.806;2022-09-29T05:39:34;91744.13;;;3.73;100.00
16738;BME280;17906;47.684;10.806;2022-09-29T05:42:03;91748.53;;;3.79;100.00
16738;BME280;17906;47.684;10.806;2022-09-29T05:44:30;91749.09;;;3.82;100.00
16738;BME280;17906;47.684;10.806;2022-09-29T05:46:58;91742.53;;;3.89;100.00
16738;BME280;17906;47.684;10.806;2022-09-29T05:49:24;91751.03;;;3.86;100.00
16738;BME280;17906;47.684;10.806;2022-09-29T05:51:51;91756.38;;;3.86;100.00
16738;BME280;17906;47.684;10.806;2022-09-29T05:54:18;91754.06;;;3.90;100.00
16738;BME280;17906;47.684;10.806;2022-09-29T05:56:45;91757.03;;;3.93;100.00
16738;BME280;17906;47.684;10.806;2022-09-29T05:59:13;91760.84;;;3.97;100.00
16738;BME280;17906;47.684;10.806;2022-09-29T06:01:42;91768.19;;;4.02;100.00
16738;BME280;17906;47.684;10.806;2022-09-29T06:04:09;91770.31;;;4.00;100.00
16738;BME280;17906;47.684;10.806;2022-09-29T06:06:35;91763.69;;;4.07;100.00
16738;BME280;17906;47.684;10.806;2022-09-29T06:09:05;91761.66;;;4.15;100.00
16738;BME280;17906;47.684;10.806;2022-09-29T06:11:32;91765.97;;;4.16;100.00
16738;BME280;17906;47.684;10.806;2022-09-29T06:14:00;91768.22;;;4.24;100.00
16738;BME280;17906;47.684;10.806;2022-09-29T06:16:30;91764.50;;;4.25;100.00
16738;BME280;17906;47.684;10.806;2022-09-29T06:18:57;91768.84;;;4.31;100.00
16738;BME280;17906;47.684;10.806;2022-09-29T06:21:26;91757.31;;;4.30;100.00
16738;BME280;17906;47.684;10.806;2022-09-29T06:23:55;91750.81;;;4.26;100.00
16738;BME280;17906;47.684;10.806;2022-09-29T06:26:23;91747.59;;;4.24;100.00
16738;BME280;17906;47.684;10.806;2022-09-29T06:28:51;91746.03;;;4.28;100.00
16738;BME280;17906;47.684;10.806;2022-09-29T06:31:20;91744.72;;;4.31;100.00
16738;BME280;17906;47.684;10.806;2022-09-29T06:33:49;91745.91;;;4.40;100.00
16738;BME280;17906;47.684;10.806;2022-09-29T06:36:17;91748.69;;;4.45;100.00
16738;BME280;17906;47.684;10.806;2022-09-29T06:39:02;91751.66;;;4.49;100.00
16738;BME280;17906;47.684;10.806;2022-09-29T06:41:29;91749.13;;;4.59;100.00
16738;BME280;17906;47.684;10.806;2022-09-29T06:43:56;91753.84;;;4.52;100.00
16738;BME280;17906;47.684;10.806;2022-09-29T06:46:23;91748.00;;;4.55;100.00
16738;BME280;17906;47.684;10.806;2022-09-29T06:48:53;91758.16;;;4.53;100.00
16738;BME280;17906;47.684;10.806;2022-09-29T06:51:20;91762.59;;;4.64;100.00
16738;BME280;17906;47.684;10.806;2022-09-29T06:53:47;91765.88;;;4.66;100.00
16738;BME280;17906;47.684;10.806;2022-09-29T06:56:15;91765.22;;;4.59;100.00
16738;BME280;17906;47.684;10.806;2022-09-29T06:58:41;91757.22;;;4.64;100.00
16738;BME280;17906;47.684;10.806;2022-09-29T07:01:08;91750.25;;;4.63;100.00
16738;BME280;17906;47.684;10.806;2022-09-29T07:03:36;91744.06;;;4.62;100.00
16738;BME280;17906;47.684;10.806;2022-09-29T07:06:07;91749.25;;;4.69;100.00
16738;BME280;17906;47.684;10.806;2022-09-29T07:08:34;91751.19;;;4.74;100.00
16738;BME280;17906;47.684;10.806;2022-09-29T07:11:04;91753.94;;;4.79;100.00
16738;BME280;17906;47.684;10.806;2022-09-29T07:13:34;91750.13;;;4.75;100.00
16738;BME280;17906;47.684;10.806;2022-09-29T07:16:05;91756.63;;;4.79;100.00
16738;BME280;17906;47.684;10.806;2022-09-29T07:18:32;91756.41;;;4.85;100.00
16738;BME280;17906;47.684;10.806;2022-09-29T07:21:04;91760.81;;;4.91;100.00
16738;BME280;17906;47.684;10.806;2022-09-29T07:23:31;91767.88;;;4.98;100.00
16738;BME280;17906;47.684;10.806;2022-09-29T07:25:58;91767.53;;;4.94;100.00
16738;BME280;17906;47.684;10.806;2022-09-29T07:28:26;91766.47;;;4.95;100.00
16738;BME280;17906;47.684;10.806;2022-09-29T07:31:00;91769.66;;;4.92;100.00
16738;BME280;17906;47.684;10.806;2022-09-29T07:33:27;91762.69;;;4.91;100.00
16738;BME280;17906;47.684;10.806;2022-09-29T07:35:53;91762.13;;;4.89;100.00
16738;BME280;17906;47.684;10.806;2022-09-29T07:38:21;91762.94;;;4.89;100.00
16738;BME280;17906;47.684;10.806;2022-09-29T07:40:48;91763.78;;;4.95;100.00
16738;BME280;17906;47.684;10.806;2022-09-29T07:43:15;91773.03;;;5.04;100.00
16738;BME280;17906;47.684;10.806;2022-09-29T07:45:47;91762.50;;;4.98;100.00
16738;BME280;17906;47.684;10.806;2022-09-29T07:48:14;91769.50;;;4.99;100.00
16738;BME280;17906;47.684;10.806;2022-09-29T07:50:41;91775.16;;;5.02;100.00
16738;BME280;17906;47.684;10.806;2022-09-29T07:53:08;91774.09;;;5.03;100.00
16738;BME280;17906;47.684;10.806;2022-09-29T07:55:36;91778.81;;;5.18;100.00
16738;BME280;17906;47.684;10.806;2022-09-29T07:58:03;91778.00;;;5.17;100.00
16738;BME280;17906;47.684;10.806;2022-09-29T08:00:31;91781.31;;;5.24;100.00
16738;BME280;17906;47.684;10.806;2022-09-29T08:02:59;91777.13;;;5.34;100.00
16738;BME280;17906;47.684;10.806;2022-09-29T08:05:26;91783.88;;;5.36;100.00
16738;BME280;17906;47.684;10.806;2022-09-29T08:07:53;91785.81;;;5.41;100.00
16738;BME280;17906;47.684;10.806;2022-09-29T08:10:20;91781.00;;;5.43;100.00
16738;BME280;17906;47.684;10.806;2022-09-29T08:12:48;91793.13;;;5.50;100.00
16738;BME280;17906;47.684;10.806;2022-09-29T08:15:15;91781.84;;;5.48;100.00
16738;BME280;17906;47.684;10.806;2022-09-29T08:17:42;91785.84;;;5.46;100.00
16738;BME280;17906;47.684;10.806;2022-09-29T08:20:09;91797.38;;;5.41;100.00
16738;BME280;17906;47.684;10.806;2022-09-29T08:22:35;91793.22;;;5.55;100.00
16738;BME280;17906;47.684;10.806;2022-09-29T08:25:03;91796.50;;;5.63;100.00
16738;BME280;17906;47.684;10.806;2022-09-29T08:27:29;91799.94;;;5.58;100.00
16738;BME280;17906;47.684;10.806;2022-09-29T08:29:57;91801.81;;;5.58;100.00
16738;BME280;17906;47.684;10.806;2022-09-29T08:32:24;91811.72;;;5.52;100.00
16738;BME280;17906;47.684;10.806;2022-09-29T08:34:51;91807.50;;;5.61;100.00
16738;BME280;17906;47.684;10.806;2022-09-29T08:37:17;91812.66;;;5.63;100.00
16738;BME280;17906;47.684;10.806;2022-09-29T08:39:44;91814.75;;;5.61;100.00
16738;BME280;17906;47.684;10.806;2022-09-29T08:42:16;91825.09;;;5.47;100.00
16738;BME280;17906;47.684;10.806;2022-09-29T08:44:48;91819.34;;;5.38;100.00
16738;BME280;17906;47.684;10.806;2022-09-29T08:47:24;91829.16;;;5.49;100.00
16738;BME280;17906;47.684;10.806;2022-09-29T08:49:54;91826.19;;;5.51;100.00
16738;BME280;17906;47.684;10.806;2022-09-29T08:52:25;91829.25;;;5.60;100.00
16738;BME280;17906;47.684;10.806;2022-09-29T08:54:58;91834.38;;;5.61;100.00
16738;BME280;17906;47.684;10.806;2022-09-29T08:57:28;91831.56;;;5.51;100.00
16738;BME280;17906;47.684;10.806;2022-09-29T08:59:57;91833.28;;;5.57;100.00
16738;BME280;17906;47.684;10.806;2022-09-29T09:02:53;91825.81;;;5.64;100.00
16738;BME280;17906;47.684;10.806;2022-09-29T09:08:27;91840.81;;;5.60;100.00
16738;BME280;17906;47.684;10.806;2022-09-29T09:11:02;91849.50;;;5.67;100.00
16738;BME280;17906;47.684;10.806;2022-09-29T09:13:49;91835.63;;;5.75;100.00
16738;BME280;17906;47.684;10.806;2022-09-29T09:16:27;91852.75;;;5.69;100.00
16738;BME280;17906;47.684;10.806;2022-09-29T09:19:29;91863.72;;;5.63;100.00
16738;BME280;17906;47.684;10.806;2022-09-29T09:22:10;91856.47;;;5.63;100.00
16738;BME280;17906;47.684;10.806;2022-09-29T09:24:46;91849.00;;;5.70;100.00
16738;BME280;17906;47.684;10.806;2022-09-29T09:27:18;91854.81;;;5.62;100.00
16738;BME280;17906;47.684;10.806;2022-09-29T09:29:48;91862.94;;;5.67;100.00
16738;BME280;17906;47.684;10.806;2022-09-29T09:32:18;91856.47;;;5.63;100.00
16738;BME280;17906;47.684;10.806;2022-09-29T09:34:51;91865.38;;;5.69;100.00
16738;BME280;17906;47.684;10.806;2022-09-29T09:37:24;91860.00;;;5.69;100.00
16738;BME280;17906;47.684;10.806;2022-09-29T09:39:56;91861.84;;;5.63;100.00
16738;BME280;17906;47.684;10.806;2022-09-29T09:42:27;91856.69;;;5.62;100.00
16738;BME280;17906;47.684;10.806;2022-09-29T09:44:58;91848.88;;;5.60;100.00
16738;BME280;17906;47.684;10.806;2022-09-29T09:47:30;91845.50;;;5.70;100.00
16738;BME280;17906;47.684;10.806;2022-09-29T09:50:03;91844.75;;;5.74;100.00
16738;BME280;17906;47.684;10.806;2022-09-29T09:52:40;91847.13;;;5.71;100.00
16738;BME280;17906;47.684;10.806;2022-09-29T09:55:14;91842.63;;;5.76;100.00
16738;BME280;17906;47.684;10.806;2022-09-29T09:58:02;91856.41;;;5.85;100.00
16738;BME280;17906;47.684;10.806;2022-09-29T10:00:35;91849.75;;;5.93;100.00
16738;BME280;17906;47.684;10.806;2022-09-29T10:03:05;91860.78;;;5.91;100.00
16738;BME280;17906;47.684;10.806;2022-09-29T10:05:36;91860.31;;;5.99;100.00
16738;BME280;17906;47.684;10.806;2022-09-29T10:08:04;91864.00;;;5.93;100.00
16738;BME280;17906;47.684;10.806;2022-09-29T10:10:32;91870.53;;;5.97;100.00
16738;BME280;17906;47.684;10.806;2022-09-29T10:13:02;91874.56;;;6.00;100.00
16738;BME280;17906;47.684;10.806;2022-09-29T10:15:32;91874.56;;;6.00;100.00
16738;BME280;17906;47.684;10.806;2022-09-29T10:18:05;91868.13;;;6.01;100.00
16738;BME280;17906;47.684;10.806;2022-09-29T10:20:38;91870.81;;;6.01;100.00
16738;BME280;17906;47.684;10.806;2022-09-29T10:23:25;91873.78;;;5.99;100.00
16738;BME280;17906;47.684;10.806;2022-09-29T10:25:56;91870.47;;;5.92;100.00
16738;BME280;17906;47.684;10.806;2022-09-29T10:28:25;91878.59;;;5.97;100.00
16738;BME280;17906;47.684;10.806;2022-09-29T10:30:54;91876.66;;;5.93;100.00
16738;BME280;17906;47.684;10.806;2022-09-29T10:33:23;91873.78;;;5.99;100.00
16738;BME280;17906;47.684;10.806;2022-09-29T10:36:07;91878.63;;;6.02;100.00
16738;BME280;17906;47.684;10.806;2022-09-29T10:38:34;91880.47;;;5.97;100.00
16738;BME280;17906;47.684;10.806;2022-09-29T10:41:04;91876.34;;;5.89;100.00
16738;BME280;17906;47.684;10.806;2022-09-29T10:43:35;91888.47;;;5.92;100.00
16738;BME280;17906;47.684;10.806;2022-09-29T10:46:03;91876.66;;;5.93;100.00
16738;BME280;17906;47.684;10.806;2022-09-29T10:48:30;91883.97;;;5.97;100.00
16738;BME280;17906;47.684;10.806;2022-09-29T10:50:59;91885.88;;;6.02;100.00
16738;BME280;17906;47.684;10.806;2022-09-29T10:53:33;91888.09;;;6.05;100.00
16738;BME280;17906;47.684;10.806;2022-09-29T10:56:05;91879.78;;;6.06;100.00
16738;BME280;17906;47.684;10.806;2022-09-29T10:58:35;91894.19;;;5.95;100.00
16738;BME280;17906;47.684;10.806;2022-09-29T11:01:05;91881.56;;;6.01;100.00
16738;BME280;17906;47.684;10.806;2022-09-29T11:03:36;91878.63;;;6.02;100.00
16738;BME280;17906;47.684;10.806;2022-09-29T11:06:05;91878.22;;;6.10;100.00
16738;BME280;17906;47.684;10.806;2022-09-29T11:08:54;91883.41;;;6.17;100.00
16738;BME280;17906;47.684;10.806;2022-09-29T11:11:23;91894.22;;;6.27;100.00
16738;BME280;17906;47.684;10.806;2022-09-29T11:13:51;91889.50;;;6.39;100.00
16738;BME280;17906;47.684;10.806;2022-09-29T11:16:24;91885.75;;;6.40;100.00
16738;BME280;17906;47.684;10.806;2022-09-29T11:18:53;91890.59;;;6.38;100.00
16738;BME280;17906;47.684;10.806;2022-09-29T11:24:48;91894.38;;;6.43;100.00
16738;BME280;17906;47.684;10.806;2022-09-29T11:27:29;91897.69;;;6.50;100.00
16738;BME280;17906;47.684;10.806;2022-09-29T11:30:02;91900.09;;;6.51;100.00
16738;BME280;17906;47.684;10.806;2022-09-29T11:32:42;91911.44;;;6.53;100.00
16738;BME280;17906;47.684;10.806;2022-09-29T11:35:23;91903.53;;;6.41;100.00
16738;BME280;17906;47.684;10.806;2022-09-29T11:38:19;91901.91;;;6.40;100.00
16738;BME280;17906;47.684;10.806;2022-09-29T11:41:00;91906.78;;;6.49;100.00
16738;BME280;17906;47.684;10.806;2022-09-29T11:43:42;91899.03;;;6.52;100.00
16738;BME280;17906;47.684;10.806;2022-09-29T11:46:28;91895.31;;;6.58;100.00
16738;BME280;17906;47.684;10.806;2022-09-29T11:49:18;91903.91;;;6.55;100.00
16738;BME280;17906;47.684;10.806;2022-09-29T11:52:07;91906.94;;;6.64;100.00
16738;BME280;17906;47.684;10.806;2022-09-29T11:54:49;91904.84;;;6.71;100.00
16738;BME280;17906;47.684;10.806;2022-09-29T11:57:31;91899.41;;;6.66;100.00
16738;BME280;17906;47.684;10.806;2022-09-29T12:00:03;91902.03;;;6.56;100.00
16738;BME280;17906;47.684;10.806;2022-09-29T12:05:25;91907.94;;;6.58;100.00
16738;BME280;17906;47.684;10.806;2022-09-29T12:08:01;91905.06;;;6.64;100.00
16738;BME280;17906;47.684;10.806;2022-09-29T12:10:41;91906.13;;;6.63;100.00
16738;BME280;17906;47.684;10.806;2022-09-29T12:13:19;91895.97;;;6.76;99.52
16738;BME280;17906;47.684;10.806;2022-09-29T12:15:52;91907.03;;;6.79;99.61
16738;BME280;17906;47.684;10.806;2022-09-29T12:18:24;91899.50;;;6.76;100.00
16738;BME280;17906;47.684;10.806;2022-09-29T12:20:54;91899.22;;;6.78;100.00
16738;BME280;17906;47.684;10.806;2022-09-29T12:23:24;91887.34;;;6.74;98.45
16738;BME280;17906;47.684;10.806;2022-09-29T12:25:58;91887.34;;;6.74;98.62
16738;BME280;17906;47.684;10.806;2022-09-29T12:28:31;91899.50;;;6.81;99.53
16738;BME280;17906;47.684;10.806;2022-09-29T12:31:05;91908.19;;;6.88;99.52
16738;BME280;17906;47.684;10.806;2022-09-29T12:33:36;91913.38;;;6.95;99.63
16738;BME280;17906;47.684;10.806;2022-09-29T12:36:13;91897.41;;;6.83;98.63
16738;BME280;17906;47.684;10.806;2022-09-29T12:39:03;91897.66;;;6.82;97.92
16738;BME280;17906;47.684;10.806;2022-09-29T12:41:37;91908.16;;;6.83;96.90
16738;BME280;17906;47.684;10.806;2022-09-29T12:44:13;91901.09;;;6.77;97.79
16738;BME280;17906;47.684;10.806;2022-09-29T12:46:45;91892.75;;;6.74;99.59
16738;BME280;17906;47.684;10.806;2022-09-29T12:49:18;91911.34;;;6.75;99.35
16738;BME280;17906;47.684;10.806;2022-09-29T12:51:48;91910.94;;;6.93;98.95
16738;BME280;17906;47.684;10.806;2022-09-29T12:54:19;91917.16;;;6.99;100.00
16738;BME280;17906;47.684;10.806;2022-09-29T12:56:52;91910.06;;;6.83;98.36
16738;BME280;17906;47.684;10.806;2022-09-29T12:59:30;91906.03;;;6.85;99.13
16738;BME280;17906;47.684;10.806;2022-09-29T13:02:03;91906.56;;;6.87;100.00
16738;BME280;17906;47.684;10.806;2022-09-29T13:04:58;91898.50;;;6.92;99.27
16738;BME280;17906;47.684;10.806;2022-09-29T13:07:50;91905.56;;;6.93;100.00
16738;BME280;17906;47.684;10.806;2022-09-29T13:10:37;91903.06;;;6.87;98.38
16738;BME280;17906;47.684;10.806;2022-09-29T13:13:20;91899.50;;;6.81;99.22
16738;BME280;17906;47.684;10.806;2022-09-29T13:15:59;91896.59;;;6.83;99.93
16738;BME280;17906;47.684;10.806;2022-09-29T13:21:34;91892.81;;;6.84;99.12
16738;BME280;17906;47.684;10.806;2022-09-29T13:24:22;91912.25;;;6.91;98.40
16738;BME280;17906;47.684;10.806;2022-09-29T13:27:27;91902.09;;;7.03;99.64